sensor_id;sensor_type;location;lat;lon;timestamp;pressure;altitude;pressure_sealevel;temperature;humidity
59654;BME280;66556;52.008;5.432;2023-05-07T00:02:34;101636.0;;;32.74;29.85
59654;BME280;66556;52.008;5.432;2023-05-07T00:04:11;101630.0;;;32.64;29.95
59654;BME280;66556;52.008;5.432;2023-05-07T00:05:47;101627.0;;;32.28;30.67
59654;BME280;66556;52.008;5.432;2023-05-07T00:08:59;101630.0;;;32.3;30.6
59654;BME280;66556;52.008;5.432;2023-05-07T00:10:35;101630.0;;;32.87;29.69
59654;BME280;66556;52.008;5.432;2023-05-07T00:12:11;101632.0;;;32.76;29.79
59654;BME280;66556;52.008;5.432;2023-05-07T00:13:47;101636.0;;;32.85;29.61
59654;BME280;66556;52.008;5.432;2023-05-07T00:17:02;101630.0;;;32.82;29.47
59654;BME280;66556;52.008;5.432;2023-05-07T00:18:39;101624.0;;;32.44;30.24
59654;BME280;66556;52.008;5.432;2023-05-07T00:20:15;101624.0;;;32.36;30.26
59654;BME280;66556;52.008;5.432;2023-05-07T00:23:27;101627.0;;;33.03;29.43
59654;BME280;66556;52.008;5.432;2023-05-07T00:25:04;101625.0;;;32.85;29.39
59654;BME280;66556;52.008;5.432;2023-05-07T00:26:41;101625.0;;;32.89;29.39
59654;BME280;66556;52.008;5.432;2023-05-07T00:29:55;101621.0;;;32.99;29.32
59654;BME280;66556;52.008;5.432;2023-05-07T00:31:32;101619.0;;;33.06;28.92
59654;BME280;66556;52.008;5.432;2023-05-07T00:33:08;101615.0;;;32.31;30.21
59654;BME280;66556;52.008;5.432;2023-05-07T00:34:44;101613.0;;;32.0;30.87
59654;BME280;66556;52.008;5.432;2023-05-07T00:37:58;101611.0;;;32.17;30.32
59654;BME280;66556;52.008;5.432;2023-05-07T00:39:34;101610.0;;;32.6;29.95
59654;BME280;66556;52.008;5.432;2023-05-07T00:41:11;101612.0;;;32.55;29.8
59654;BME280;66556;52.008;5.432;2023-05-07T00:44:24;101612.0;;;32.46;29.93
59654;BME280;66556;52.008;5.432;2023-05-07T00:46:01;101603.0;;;32.64;29.65
59654;BME280;66556;52.008;5.432;2023-05-07T00:47:37;101605.0;;;32.42;30.0
59654;BME280;66556;52.008;5.432;2023-05-07T00:50:52;101599.0;;;32.28;30.05
59654;BME280;66556;52.008;5.432;2023-05-07T00:52:29;101600.0;;;32.61;29.72
59654;BME280;66556;52.008;5.432;2023-05-07T00:54:06;101596.0;;;32.28;30.08
59654;BME280;66556;52.008;5.432;2023-05-07T00:55:43;101597.0;;;32.25;30.1
59654;BME280;66556;52.008;5.432;2023-05-07T00:58:57;101594.0;;;32.07;30.55
59654;BME280;66556;52.008;5.432;2023-05-07T01:00:34;101592.0;;;32.31;30.0
59654;BME280;66556;52.008;5.432;2023-05-07T01:02:10;101597.0;;;31.81;30.69
59654;BME280;66556;52.008;5.432;2023-05-07T01:05:24;101596.0;;;32.22;30.27
59654;BME280;66556;52.008;5.432;2023-05-07T01:07:02;101599.0;;;32.28;30.1
59654;BME280;66556;52.008;5.432;2023-05-07T01:08:39;101596.0;;;32.33;29.79
59654;BME280;66556;52.008;5.432;2023-05-07T01:10:17;101599.0;;;32.42;29.75
59654;BME280;66556;52.008;5.432;2023-05-07T01:13:33;101594.0;;;32.46;29.87
59654;BME280;66556;52.008;5.432;2023-05-07T01:15:11;101595.0;;;32.04;30.45
59654;BME280;66556;52.008;5.432;2023-05-07T01:16:48;101598.0;;;31.99;30.47
59654;BME280;66556;52.008;5.432;2023-05-07T01:20:04;101594.0;;;31.82;30.67
59654;BME280;66556;52.008;5.432;2023-05-07T01:21:45;101598.0;;;31.74;30.99
59654;BME280;66556;52.008;5.432;2023-05-07T01:23:22;101593.0;;;31.86;30.56
59654;BME280;66556;52.008;5.432;2023-05-07T01:25:00;101591.0;;;31.92;30.49
59654;BME280;66556;52.008;5.432;2023-05-07T01:28:14;101587.0;;;32.65;29.47
59654;BME280;66556;52.008;5.432;2023-05-07T01:29:50;101590.0;;;32.04;30.29
59654;BME280;66556;52.008;5.432;2023-05-07T01:31:26;101589.0;;;32.03;30.36
59654;BME280;66556;52.008;5.432;2023-05-07T01:34:46;101591.0;;;31.7;30.78
59654;BME280;66556;52.008;5.432;2023-05-07T01:36:25;101587.0;;;31.74;30.9
59654;BME280;66556;52.008;5.432;2023-05-07T01:38:03;101588.0;;;32.28;30.16
59654;BME280;66556;52.008;5.432;2023-05-07T01:39:40;101585.0;;;32.14;30.18
59654;BME280;66556;52.008;5.432;2023-05-07T01:42:54;101589.0;;;31.88;30.65
59654;BME280;66556;52.008;5.432;2023-05-07T01:44:30;101592.0;;;31.66;30.96
59654;BME280;66556;52.008;5.432;2023-05-07T01:46:07;101598.0;;;31.4;31.56
59654;BME280;66556;52.008;5.432;2023-05-07T01:49:20;101596.0;;;31.78;30.93
59654;BME280;66556;52.008;5.432;2023-05-07T01:50:57;101594.0;;;31.83;30.93
59654;BME280;66556;52.008;5.432;2023-05-07T01:52:34;101593.0;;;31.92;30.67
59654;BME280;66556;52.008;5.432;2023-05-07T01:54:12;101591.0;;;31.66;31.19
59654;BME280;66556;52.008;5.432;2023-05-07T01:57:24;101594.0;;;31.87;30.65
59654;BME280;66556;52.008;5.432;2023-05-07T01:59:00;101596.0;;;31.9;30.7
59654;BME280;66556;52.008;5.432;2023-05-07T02:00:37;101593.0;;;31.75;31.13
59654;BME280;66556;52.008;5.432;2023-05-07T02:03:50;101597.0;;;31.84;30.82
59654;BME280;66556;52.008;5.432;2023-05-07T02:05:26;101596.0;;;31.66;31.07
59654;BME280;66556;52.008;5.432;2023-05-07T02:07:02;101595.0;;;31.68;31.24
59654;BME280;66556;52.008;5.432;2023-05-07T02:10:14;101602.0;;;31.6;31.45
59654;BME280;66556;52.008;5.432;2023-05-07T02:11:50;101605.0;;;31.79;31.03
59654;BME280;66556;52.008;5.432;2023-05-07T02:13:28;101598.0;;;32.01;30.76
59654;BME280;66556;52.008;5.432;2023-05-07T02:15:06;101598.0;;;32.49;30.05
59654;BME280;66556;52.008;5.432;2023-05-07T02:18:19;101593.0;;;32.58;29.74
59654;BME280;66556;52.008;5.432;2023-05-07T02:19:55;101591.0;;;32.42;30.0
59654;BME280;66556;52.008;5.432;2023-05-07T02:21:31;101585.0;;;32.04;30.66
59654;BME280;66556;52.008;5.432;2023-05-07T02:24:44;101588.0;;;32.17;30.56
59654;BME280;66556;52.008;5.432;2023-05-07T02:26:20;101583.0;;;32.18;30.46
59654;BME280;66556;52.008;5.432;2023-05-07T02:27:57;101588.0;;;31.87;31.09
59654;BME280;66556;52.008;5.432;2023-05-07T02:31:09;101584.0;;;31.91;30.75
59654;BME280;66556;52.008;5.432;2023-05-07T02:32:45;101586.0;;;31.95;30.88
59654;BME280;66556;52.008;5.432;2023-05-07T02:34:21;101585.0;;;32.1;30.62
59654;BME280;66556;52.008;5.432;2023-05-07T02:37:41;101583.0;;;31.93;30.92
59654;BME280;66556;52.008;5.432;2023-05-07T02:39:17;101585.0;;;32.03;30.74
59654;BME280;66556;52.008;5.432;2023-05-07T02:40:54;101587.0;;;32.25;30.31
59654;BME280;66556;52.008;5.432;2023-05-07T02:42:31;101589.0;;;32.33;30.16
59654;BME280;66556;52.008;5.432;2023-05-07T02:45:44;101592.0;;;32.42;29.96
59654;BME280;66556;52.008;5.432;2023-05-07T02:47:20;101586.0;;;32.22;30.23
59654;BME280;66556;52.008;5.432;2023-05-07T02:48:56;101587.0;;;31.95;30.65
59654;BME280;66556;52.008;5.432;2023-05-07T02:52:09;101583.0;;;32.24;30.44
59654;BME280;66556;52.008;5.432;2023-05-07T02:53:45;101586.0;;;32.4;29.99
59654;BME280;66556;52.008;5.432;2023-05-07T02:55:21;101590.0;;;32.0;30.47
59654;BME280;66556;52.008;5.432;2023-05-07T02:56:57;101590.0;;;31.92;30.5
59654;BME280;66556;52.008;5.432;2023-05-07T03:00:11;101589.0;;;32.07;30.48
59654;BME280;66556;52.008;5.432;2023-05-07T03:01:48;101587.0;;;32.18;30.29
59654;BME280;66556;52.008;5.432;2023-05-07T03:03:24;101584.0;;;32.06;30.42
59654;BME280;66556;52.008;5.432;2023-05-07T03:06:36;101582.0;;;31.77;31.03
59654;BME280;66556;52.008;5.432;2023-05-07T03:08:12;101583.0;;;32.01;30.77
59654;BME280;66556;52.008;5.432;2023-05-07T03:09:49;101580.0;;;31.76;31.0
59654;BME280;66556;52.008;5.432;2023-05-07T03:13:01;101583.0;;;31.87;30.75
59654;BME280;66556;52.008;5.432;2023-05-07T03:14:38;101583.0;;;31.77;30.98
59654;BME280;66556;52.008;5.432;2023-05-07T03:16:15;101581.0;;;31.74;30.99
59654;BME280;66556;52.008;5.432;2023-05-07T03:17:51;101580.0;;;31.69;31.05
59654;BME280;66556;52.008;5.432;2023-05-07T03:21:04;101574.0;;;31.83;30.62
59654;BME280;66556;52.008;5.432;2023-05-07T03:22:40;101576.0;;;31.77;30.61
59654;BME280;66556;52.008;5.432;2023-05-07T03:24:17;101577.0;;;31.73;30.69
59654;BME280;66556;52.008;5.432;2023-05-07T03:27:29;101571.0;;;31.98;30.35
59654;BME280;66556;52.008;5.432;2023-05-07T03:29:05;101575.0;;;31.84;30.7
59654;BME280;66556;52.008;5.432;2023-05-07T03:30:41;101571.0;;;31.63;30.78
59654;BME280;66556;52.008;5.432;2023-05-07T03:33:55;101577.0;;;31.73;30.73
59654;BME280;66556;52.008;5.432;2023-05-07T03:35:32;101574.0;;;31.34;31.05
59654;BME280;66556;52.008;5.432;2023-05-07T03:37:09;101572.0;;;31.63;30.68
59654;BME280;66556;52.008;5.432;2023-05-07T03:38:45;101576.0;;;31.24;31.38
59654;BME280;66556;52.008;5.432;2023-05-07T03:41:57;101584.0;;;31.2;31.52
59654;BME280;66556;52.008;5.432;2023-05-07T03:43:34;101580.0;;;31.17;31.73
59654;BME280;66556;52.008;5.432;2023-05-07T03:45:11;101581.0;;;31.1;31.81
59654;BME280;66556;52.008;5.432;2023-05-07T03:48:23;101582.0;;;31.0;31.64
59654;BME280;66556;52.008;5.432;2023-05-07T03:49:59;101582.0;;;31.17;31.36
59654;BME280;66556;52.008;5.432;2023-05-07T03:51:35;101580.0;;;31.16;31.23
59654;BME280;66556;52.008;5.432;2023-05-07T03:54:49;101581.0;;;31.03;31.63
59654;BME280;66556;52.008;5.432;2023-05-07T03:56:25;101583.0;;;31.11;31.41
59654;BME280;66556;52.008;5.432;2023-05-07T03:58:01;101585.0;;;31.19;31.48
59654;BME280;66556;52.008;5.432;2023-05-07T04:01:13;101588.0;;;31.2;31.31
59654;BME280;66556;52.008;5.432;2023-05-07T04:02:49;101592.0;;;31.06;31.54
59654;BME280;66556;52.008;5.432;2023-05-07T04:04:25;101595.0;;;31.18;31.38
59654;BME280;66556;52.008;5.432;2023-05-07T04:06:02;101593.0;;;31.15;31.58
59654;BME280;66556;52.008;5.432;2023-05-07T04:09:15;101598.0;;;30.96;32.04
59654;BME280;66556;52.008;5.432;2023-05-07T04:10:54;101599.0;;;30.42;33.04
59654;BME280;66556;52.008;5.432;2023-05-07T04:12:31;101598.0;;;30.43;33.17
59654;BME280;66556;52.008;5.432;2023-05-07T04:15:43;101598.0;;;30.72;32.61
59654;BME280;66556;52.008;5.432;2023-05-07T04:17:19;101596.0;;;30.66;32.86
59654;BME280;66556;52.008;5.432;2023-05-07T04:18:55;101601.0;;;30.93;32.53
59654;BME280;66556;52.008;5.432;2023-05-07T04:22:12;101606.0;;;30.87;32.42
59654;BME280;66556;52.008;5.432;2023-05-07T04:23:48;101598.0;;;30.99;32.03
59654;BME280;66556;52.008;5.432;2023-05-07T04:25:25;101599.0;;;31.0;32.14
59654;BME280;66556;52.008;5.432;2023-05-07T04:27:01;101603.0;;;30.93;32.28
59654;BME280;66556;52.008;5.432;2023-05-07T04:30:14;101599.0;;;31.43;31.58
59654;BME280;66556;52.008;5.432;2023-05-07T04:31:50;101593.0;;;31.3;31.84
59654;BME280;66556;52.008;5.432;2023-05-07T04:33:27;101596.0;;;31.3;31.84
59654;BME280;66556;52.008;5.432;2023-05-07T04:36:41;101597.0;;;31.2;31.81
59654;BME280;66556;52.008;5.432;2023-05-07T04:38:17;101593.0;;;31.39;31.77
59654;BME280;66556;52.008;5.432;2023-05-07T04:39:53;101594.0;;;30.86;32.35
59654;BME280;66556;52.008;5.432;2023-05-07T04:43:05;101587.0;;;31.11;32.15
59654;BME280;66556;52.008;5.432;2023-05-07T04:44:43;101590.0;;;31.3;31.71
59654;BME280;66556;52.008;5.432;2023-05-07T04:46:20;101590.0;;;31.32;31.67
59654;BME280;66556;52.008;5.432;2023-05-07T04:47:56;101590.0;;;31.8;31.04
59654;BME280;66556;52.008;5.432;2023-05-07T04:51:08;101596.0;;;31.53;31.28
59654;BME280;66556;52.008;5.432;2023-05-07T04:52:44;101599.0;;;31.71;31.02
59654;BME280;66556;52.008;5.432;2023-05-07T04:54:20;101602.0;;;31.65;31.06
59654;BME280;66556;52.008;5.432;2023-05-07T04:57:33;101606.0;;;31.35;31.92
59654;BME280;66556;52.008;5.432;2023-05-07T04:59:10;101610.0;;;31.71;31.31
59654;BME280;66556;52.008;5.432;2023-05-07T05:00:46;101611.0;;;31.77;31.05
59654;BME280;66556;52.008;5.432;2023-05-07T05:03:58;101611.0;;;31.8;31.14
59654;BME280;66556;52.008;5.432;2023-05-07T05:05:34;101617.0;;;31.96;31.07
59654;BME280;66556;52.008;5.432;2023-05-07T05:07:11;101611.0;;;31.89;31.12
59654;BME280;66556;52.008;5.432;2023-05-07T05:08:47;101616.0;;;31.75;31.19
59654;BME280;66556;52.008;5.432;2023-05-07T05:11:59;101614.0;;;31.84;30.76
59654;BME280;66556;52.008;5.432;2023-05-07T05:13:35;101614.0;;;31.9;31.04
59654;BME280;66556;52.008;5.432;2023-05-07T05:15:12;101618.0;;;31.83;30.87
59654;BME280;66556;52.008;5.432;2023-05-07T05:18:25;101618.0;;;31.91;31.12
59654;BME280;66556;52.008;5.432;2023-05-07T05:20:00;101617.0;;;32.49;30.16
59654;BME280;66556;52.008;5.432;2023-05-07T05:21:37;101622.0;;;32.5;30.01
59654;BME280;66556;52.008;5.432;2023-05-07T05:24:49;101622.0;;;32.49;29.97
59654;BME280;66556;52.008;5.432;2023-05-07T05:26:25;101623.0;;;32.19;30.63
59654;BME280;66556;52.008;5.432;2023-05-07T05:28:01;101625.0;;;32.29;30.55
59654;BME280;66556;52.008;5.432;2023-05-07T05:29:37;101623.0;;;32.24;30.57
59654;BME280;66556;52.008;5.432;2023-05-07T05:32:50;101624.0;;;32.24;30.57
59654;BME280;66556;52.008;5.432;2023-05-07T05:34:26;101628.0;;;32.53;30.16
59654;BME280;66556;52.008;5.432;2023-05-07T05:36:02;101632.0;;;32.31;30.36
59654;BME280;66556;52.008;5.432;2023-05-07T05:39:15;101633.0;;;32.64;30.08
59654;BME280;66556;52.008;5.432;2023-05-07T05:40:53;101643.0;;;33.21;29.18
59654;BME280;66556;52.008;5.432;2023-05-07T05:42:30;101642.0;;;32.43;30.33
59654;BME280;66556;52.008;5.432;2023-05-07T05:45:42;101643.0;;;32.71;29.89
59654;BME280;66556;52.008;5.432;2023-05-07T05:47:18;101650.0;;;32.49;30.13
59654;BME280;66556;52.008;5.432;2023-05-07T05:48:55;101652.0;;;32.56;30.07
59654;BME280;66556;52.008;5.432;2023-05-07T05:52:07;101652.0;;;32.74;29.93
59654;BME280;66556;52.008;5.432;2023-05-07T05:53:43;101655.0;;;32.65;29.9
59654;BME280;66556;52.008;5.432;2023-05-07T05:55:20;101655.0;;;32.85;29.73
59654;BME280;66556;52.008;5.432;2023-05-07T05:56:56;101659.0;;;32.92;29.57
59654;BME280;66556;52.008;5.432;2023-05-07T06:00:10;101662.0;;;32.49;30.53
59654;BME280;66556;52.008;5.432;2023-05-07T06:01:46;101661.0;;;32.79;29.8
59654;BME280;66556;52.008;5.432;2023-05-07T06:03:23;101660.0;;;32.46;30.57
59654;BME280;66556;52.008;5.432;2023-05-07T06:06:35;101662.0;;;32.26;30.75
59654;BME280;66556;52.008;5.432;2023-05-07T06:08:11;101662.0;;;32.29;30.93
59654;BME280;66556;52.008;5.432;2023-05-07T06:09:47;101666.0;;;32.47;30.33
59654;BME280;66556;52.008;5.432;2023-05-07T06:12:59;101667.0;;;32.83;29.81
59654;BME280;66556;52.008;5.432;2023-05-07T06:14:36;101671.0;;;32.72;30.21
59654;BME280;66556;52.008;5.432;2023-05-07T06:16:12;101673.0;;;32.31;30.75
59654;BME280;66556;52.008;5.432;2023-05-07T06:17:49;101675.0;;;32.53;30.24
59654;BME280;66556;52.008;5.432;2023-05-07T06:21:01;101678.0;;;32.51;30.51
59654;BME280;66556;52.008;5.432;2023-05-07T06:22:38;101673.0;;;32.21;31.07
59654;BME280;66556;52.008;5.432;2023-05-07T06:24:15;101676.0;;;32.55;30.3
59654;BME280;66556;52.008;5.432;2023-05-07T06:27:28;101674.0;;;32.4;30.58
59654;BME280;66556;52.008;5.432;2023-05-07T06:29:04;101682.0;;;31.81;31.57
59654;BME280;66556;52.008;5.432;2023-05-07T06:30:41;101681.0;;;31.88;31.64
59654;BME280;66556;52.008;5.432;2023-05-07T06:33:55;101680.0;;;31.92;31.86
59654;BME280;66556;52.008;5.432;2023-05-07T06:35:31;101674.0;;;32.21;31.07
59654;BME280;66556;52.008;5.432;2023-05-07T06:37:07;101677.0;;;32.6;30.76
59654;BME280;66556;52.008;5.432;2023-05-07T06:38:43;101674.0;;;32.69;30.54
59654;BME280;66556;52.008;5.432;2023-05-07T06:41:55;101675.0;;;32.49;30.88
59654;BME280;66556;52.008;5.432;2023-05-07T06:43:32;101675.0;;;32.19;31.6
59654;BME280;66556;52.008;5.432;2023-05-07T06:45:09;101678.0;;;32.42;31.03
59654;BME280;66556;52.008;5.432;2023-05-07T06:48:22;101680.0;;;32.6;31.04
59654;BME280;66556;52.008;5.432;2023-05-07T06:49:58;101682.0;;;32.74;30.78
59654;BME280;66556;52.008;5.432;2023-05-07T06:51:34;101675.0;;;32.99;30.65
59654;BME280;66556;52.008;5.432;2023-05-07T06:54:47;101680.0;;;33.03;30.55
59654;BME280;66556;52.008;5.432;2023-05-07T06:56:23;101678.0;;;33.17;30.32
59654;BME280;66556;52.008;5.432;2023-05-07T06:57:59;101680.0;;;33.32;30.08
59654;BME280;66556;52.008;5.432;2023-05-07T06:59:36;101685.0;;;33.1;30.35
59654;BME280;66556;52.008;5.432;2023-05-07T07:02:48;101681.0;;;33.18;30.23
59654;BME280;66556;52.008;5.432;2023-05-07T07:04:24;101682.0;;;33.24;30.0
59654;BME280;66556;52.008;5.432;2023-05-07T07:06:01;101680.0;;;32.8;31.01
59654;BME280;66556;52.008;5.432;2023-05-07T07:09:13;101678.0;;;32.82;30.98
59654;BME280;66556;52.008;5.432;2023-05-07T07:10:49;101677.0;;;32.62;31.1
59654;BME280;66556;52.008;5.432;2023-05-07T07:12:25;101673.0;;;32.9;31.14
59654;BME280;66556;52.008;5.432;2023-05-07T07:15:38;101675.0;;;33.21;30.65
59654;BME280;66556;52.008;5.432;2023-05-07T07:17:14;101682.0;;;33.44;30.57
59654;BME280;66556;52.008;5.432;2023-05-07T07:18:50;101683.0;;;33.49;30.63
59654;BME280;66556;52.008;5.432;2023-05-07T07:22:03;101685.0;;;33.51;30.81
59654;BME280;66556;52.008;5.432;2023-05-07T07:23:39;101685.0;;;33.47;30.85
59654;BME280;66556;52.008;5.432;2023-05-07T07:25:16;101676.0;;;33.64;30.41
59654;BME280;66556;52.008;5.432;2023-05-07T07:26:53;101678.0;;;33.93;30.1
59654;BME280;66556;52.008;5.432;2023-05-07T07:30:06;101675.0;;;33.74;30.47
59654;BME280;66556;52.008;5.432;2023-05-07T07:31:43;101678.0;;;33.72;30.42
59654;BME280;66556;52.008;5.432;2023-05-07T07:33:19;101680.0;;;33.18;30.92
59654;BME280;66556;52.008;5.432;2023-05-07T07:36:31;101678.0;;;33.21;30.84
59654;BME280;66556;52.008;5.432;2023-05-07T07:38:08;101680.0;;;33.89;29.97
59654;BME280;66556;52.008;5.432;2023-05-07T07:39:44;101689.0;;;34.17;29.69
59654;BME280;66556;52.008;5.432;2023-05-07T07:42:56;101689.0;;;34.11;30.09
59654;BME280;66556;52.008;5.432;2023-05-07T07:44:33;101689.0;;;34.03;29.89
59654;BME280;66556;52.008;5.432;2023-05-07T07:46:10;101692.0;;;33.97;30.15
59654;BME280;66556;52.008;5.432;2023-05-07T07:47:48;101688.0;;;33.86;30.45
59654;BME280;66556;52.008;5.432;2023-05-07T07:51:01;101695.0;;;34.03;29.93
59654;BME280;66556;52.008;5.432;2023-05-07T07:52:37;101690.0;;;33.65;29.93
59654;BME280;66556;52.008;5.432;2023-05-07T07:54:14;101700.0;;;33.35;30.11
59654;BME280;66556;52.008;5.432;2023-05-07T07:57:26;101700.0;;;33.76;29.8
59654;BME280;66556;52.008;5.432;2023-05-07T07:59:04;101703.0;;;33.87;29.7
59654;BME280;66556;52.008;5.432;2023-05-07T08:00:40;101706.0;;;33.6;30.67
59654;BME280;66556;52.008;5.432;2023-05-07T08:03:53;101702.0;;;33.76;30.73
59654;BME280;66556;52.008;5.432;2023-05-07T08:05:29;101701.0;;;33.94;30.21
59654;BME280;66556;52.008;5.432;2023-05-07T08:07:06;101703.0;;;33.93;30.07
59654;BME280;66556;52.008;5.432;2023-05-07T08:08:42;101710.0;;;34.11;29.74
59654;BME280;66556;52.008;5.432;2023-05-07T08:11:57;101710.0;;;33.94;30.34
59654;BME280;66556;52.008;5.432;2023-05-07T08:13:34;101708.0;;;34.28;30.19
59654;BME280;66556;52.008;5.432;2023-05-07T08:15:11;101705.0;;;33.71;30.73
59654;BME280;66556;52.008;5.432;2023-05-07T08:18:24;101706.0;;;34.21;29.96
59654;BME280;66556;52.008;5.432;2023-05-07T08:20:01;101707.0;;;33.64;31.19
59654;BME280;66556;52.008;5.432;2023-05-07T08:21:39;101710.0;;;33.96;31.38
59654;BME280;66556;52.008;5.432;2023-05-07T08:23:15;101710.0;;;33.82;31.68
59654;BME280;66556;52.008;5.432;2023-05-07T08:26:28;101712.0;;;33.67;32.35
59654;BME280;66556;52.008;5.432;2023-05-07T08:28:05;101709.0;;;34.12;31.57
59654;BME280;66556;52.008;5.432;2023-05-07T08:29:41;101709.0;;;33.97;31.29
59654;BME280;66556;52.008;5.432;2023-05-07T08:32:53;101707.0;;;34.08;30.95
59654;BME280;66556;52.008;5.432;2023-05-07T08:34:29;101709.0;;;34.07;31.71
59654;BME280;66556;52.008;5.432;2023-05-07T08:36:06;101712.0;;;34.4;30.81
59654;BME280;66556;52.008;5.432;2023-05-07T08:39:19;101709.0;;;34.28;31.07
59654;BME280;66556;52.008;5.432;2023-05-07T08:40:56;101708.0;;;34.71;31.11
59654;BME280;66556;52.008;5.432;2023-05-07T08:42:35;101708.0;;;35.03;30.53
59654;BME280;66556;52.008;5.432;2023-05-07T08:44:12;101710.0;;;35.03;30.98
59654;BME280;66556;52.008;5.432;2023-05-07T08:47:34;101709.0;;;34.54;30.79
59654;BME280;66556;52.008;5.432;2023-05-07T08:49:15;101709.0;;;35.29;29.57
59654;BME280;66556;52.008;5.432;2023-05-07T08:50:52;101707.0;;;34.99;30.33
59654;BME280;66556;52.008;5.432;2023-05-07T08:54:06;101709.0;;;35.67;29.46
59654;BME280;66556;52.008;5.432;2023-05-07T08:55:44;101711.0;;;34.89;29.81
59654;BME280;66556;52.008;5.432;2023-05-07T08:57:22;101712.0;;;35.64;29.48
59654;BME280;66556;52.008;5.432;2023-05-07T08:58:58;101713.0;;;35.04;29.31
59654;BME280;66556;52.008;5.432;2023-05-07T09:02:13;101709.0;;;35.5;29.32
59654;BME280;66556;52.008;5.432;2023-05-07T09:03:49;101712.0;;;35.0;30.02
59654;BME280;66556;52.008;5.432;2023-05-07T09:05:28;101715.0;;;35.11;30.48
59654;BME280;66556;52.008;5.432;2023-05-07T09:08:44;101713.0;;;34.26;30.66
59654;BME280;66556;52.008;5.432;2023-05-07T09:10:25;101719.0;;;34.49;30.34
59654;BME280;66556;52.008;5.432;2023-05-07T09:12:03;101719.0;;;34.81;30.16
59654;BME280;66556;52.008;5.432;2023-05-07T09:13:39;101721.0;;;35.03;30.26
59654;BME280;66556;52.008;5.432;2023-05-07T09:16:52;101713.0;;;35.21;30.31
59654;BME280;66556;52.008;5.432;2023-05-07T09:18:29;101715.0;;;34.96;30.38
59654;BME280;66556;52.008;5.432;2023-05-07T09:20:06;101717.0;;;34.68;30.42
59654;BME280;66556;52.008;5.432;2023-05-07T09:23:20;101711.0;;;35.24;30.14
59654;BME280;66556;52.008;5.432;2023-05-07T09:24:57;101717.0;;;35.56;30.07
59654;BME280;66556;52.008;5.432;2023-05-07T09:26:33;101717.0;;;35.86;29.36
59654;BME280;66556;52.008;5.432;2023-05-07T09:28:10;101712.0;;;36.14;28.87
59654;BME280;66556;52.008;5.432;2023-05-07T09:31:24;101717.0;;;36.47;28.78
59654;BME280;66556;52.008;5.432;2023-05-07T09:33:02;101714.0;;;36.5;28.67
59654;BME280;66556;52.008;5.432;2023-05-07T09:34:41;101714.0;;;36.17;28.91
59654;BME280;66556;52.008;5.432;2023-05-07T09:37:56;101712.0;;;36.04;28.79
59654;BME280;66556;52.008;5.432;2023-05-07T09:41:18;101713.0;;;35.96;29.48
59654;BME280;66556;52.008;5.432;2023-05-07T09:42:55;101710.0;;;36.25;29.08
59654;BME280;66556;52.008;5.432;2023-05-07T09:46:13;101714.0;;;36.65;28.06
59654;BME280;66556;52.008;5.432;2023-05-07T09:47:53;101714.0;;;36.54;27.13
59654;BME280;66556;52.008;5.432;2023-05-07T09:49:34;101714.0;;;36.43;28.25
59654;BME280;66556;52.008;5.432;2023-05-07T09:51:22;101715.0;;;36.29;28.01
59654;BME280;66556;52.008;5.432;2023-05-07T09:54:46;101717.0;;;36.69;27.42
59654;BME280;66556;52.008;5.432;2023-05-07T09:56:24;101722.0;;;36.42;27.62
59654;BME280;66556;52.008;5.432;2023-05-07T09:58:02;101718.0;;;36.58;27.34
59654;BME280;66556;52.008;5.432;2023-05-07T09:59:42;101718.0;;;37.08;26.3
59654;BME280;66556;52.008;5.432;2023-05-07T10:02:58;101716.0;;;36.5;27.17
59654;BME280;66556;52.008;5.432;2023-05-07T10:04:36;101716.0;;;36.49;27.5
59654;BME280;66556;52.008;5.432;2023-05-07T10:06:14;101721.0;;;36.61;27.45
59654;BME280;66556;52.008;5.432;2023-05-07T10:09:29;101723.0;;;36.6;26.58
59654;BME280;66556;52.008;5.432;2023-05-07T10:11:06;101720.0;;;36.49;26.19
59654;BME280;66556;52.008;5.432;2023-05-07T10:12:42;101723.0;;;36.75;25.8
59654;BME280;66556;52.008;5.432;2023-05-07T10:14:19;101722.0;;;36.92;25.95
59654;BME280;66556;52.008;5.432;2023-05-07T10:17:35;101720.0;;;36.87;26.52
59654;BME280;66556;52.008;5.432;2023-05-07T10:19:12;101720.0;;;36.99;26.76
59654;BME280;66556;52.008;5.432;2023-05-07T10:20:51;101720.0;;;37.14;26.8
59654;BME280;66556;52.008;5.432;2023-05-07T10:25:56;101720.0;;;37.31;25.83
59654;BME280;66556;52.008;5.432;2023-05-07T10:27:34;101718.0;;;37.19;26.33
59654;BME280;66556;52.008;5.432;2023-05-07T10:29:15;101722.0;;;36.47;26.66
59654;BME280;66556;52.008;5.432;2023-05-07T10:31:10;101720.0;;;37.21;26.75
59654;BME280;66556;52.008;5.432;2023-05-07T10:33:02;101719.0;;;37.31;25.97
59654;BME280;66556;52.008;5.432;2023-05-07T10:36:22;101720.0;;;37.89;26.15
59654;BME280;66556;52.008;5.432;2023-05-07T10:37:59;101719.0;;;37.65;25.22
59654;BME280;66556;52.008;5.432;2023-05-07T10:39:36;101720.0;;;37.96;26.52
59654;BME280;66556;52.008;5.432;2023-05-07T10:42:54;101719.0;;;37.53;25.65
59654;BME280;66556;52.008;5.432;2023-05-07T10:44:31;101713.0;;;38.28;25.73
59654;BME280;66556;52.008;5.432;2023-05-07T10:46:13;101714.0;;;38.24;25.42
59654;BME280;66556;52.008;5.432;2023-05-07T10:48:08;101712.0;;;37.42;26.05
59654;BME280;66556;52.008;5.432;2023-05-07T10:51:18;101715.0;;;37.58;25.85
59654;BME280;66556;52.008;5.432;2023-05-07T10:53:27;101718.0;;;38.14;24.92
59654;BME280;66556;52.008;5.432;2023-05-07T10:55:20;101717.0;;;37.71;25.52
59654;BME280;66556;52.008;5.432;2023-05-07T10:57:46;101719.0;;;37.03;26.01
59654;BME280;66556;52.008;5.432;2023-05-07T10:59:34;101716.0;;;36.94;25.01
59654;BME280;66556;52.008;5.432;2023-05-07T11:01:11;101717.0;;;36.62;23.8
59654;BME280;66556;52.008;5.432;2023-05-07T11:03:19;101716.0;;;37.15;24.2
59654;BME280;66556;52.008;5.432;2023-05-07T11:05:29;101714.0;;;37.81;24.2
59654;BME280;66556;52.008;5.432;2023-05-07T11:07:29;101711.0;;;37.46;24.31
59654;BME280;66556;52.008;5.432;2023-05-07T11:09:06;101715.0;;;37.67;24.55
59654;BME280;66556;52.008;5.432;2023-05-07T11:10:51;101715.0;;;38.71;24.61